sensor_id;sensor_type;location;lat;lon;timestamp;temperature;humidity
35497;DHT22;21609;49.298;6.844;2022-07-29T00:00:57;22.80;48.40
35497;DHT22;21609;49.298;6.844;2022-07-29T00:03:23;22.80;48.50
35497;DHT22;21609;49.298;6.844;2022-07-29T00:05:48;22.80;48.50
35497;DHT22;21609;49.298;6.844;2022-07-29T00:08:14;22.80;48.60
35497;DHT22;21609;49.298;6.844;2022-07-29T00:10:41;22.80;48.60
35497;DHT22;21609;49.298;6.844;2022-07-29T00:13:07;22.70;48.60
35497;DHT22;21609;49.298;6.844;2022-07-29T00:15:32;22.70;48.60
35497;DHT22;21609;49.298;6.844;2022-07-29T00:17:58;22.70;48.70
35497;DHT22;21609;49.298;6.844;2022-07-29T00:20:24;22.70;48.70
35497;DHT22;21609;49.298;6.844;2022-07-29T00:22:49;22.70;48.80
35497;DHT22;21609;49.298;6.844;2022-07-29T00:25:15;22.70;48.70
35497;DHT22;21609;49.298;6.844;2022-07-29T00:27:41;22.70;48.80
35497;DHT22;21609;49.298;6.844;2022-07-29T00:30:07;22.60;48.80
35497;DHT22;21609;49.298;6.844;2022-07-29T00:32:33;22.60;48.80
35497;DHT22;21609;49.298;6.844;2022-07-29T00:34:59;22.60;48.80
35497;DHT22;21609;49.298;6.844;2022-07-29T00:37:55;22.60;48.80
35497;DHT22;21609;49.298;6.844;2022-07-29T00:40:21;22.60;48.80
35497;DHT22;21609;49.298;6.844;2022-07-29T00:42:49;22.60;49.00
35497;DHT22;21609;49.298;6.844;2022-07-29T00:45:16;22.60;48.90
35497;DHT22;21609;49.298;6.844;2022-07-29T00:47:42;22.60;49.00
35497;DHT22;21609;49.298;6.844;2022-07-29T00:50:09;22.60;48.90
35497;DHT22;21609;49.298;6.844;2022-07-29T00:52:37;22.60;49.00
35497;DHT22;21609;49.298;6.844;2022-07-29T00:55:03;22.60;49.00
35497;DHT22;21609;49.298;6.844;2022-07-29T00:57:30;22.50;48.90
35497;DHT22;21609;49.298;6.844;2022-07-29T00:59:55;22.50;49.00
35497;DHT22;21609;49.298;6.844;2022-07-29T01:02:21;22.50;49.00
35497;DHT22;21609;49.298;6.844;2022-07-29T01:04:48;22.50;49.10
35497;DHT22;21609;49.298;6.844;2022-07-29T01:07:14;22.50;49.10
35497;DHT22;21609;49.298;6.844;2022-07-29T01:09:40;22.50;49.10
35497;DHT22;21609;49.298;6.844;2022-07-29T01:12:07;22.50;49.20
35497;DHT22;21609;49.298;6.844;2022-07-29T01:14:34;22.50;49.20
35497;DHT22;21609;49.298;6.844;2022-07-29T01:17:10;22.50;49.30
35497;DHT22;21609;49.298;6.844;2022-07-29T01:20:07;22.50;49.20
35497;DHT22;21609;49.298;6.844;2022-07-29T01:28:58;22.40;49.30
35497;DHT22;21609;49.298;6.844;2022-07-29T01:31:33;22.40;49.30
35497;DHT22;21609;49.298;6.844;2022-07-29T01:34:03;22.40;49.20
35497;DHT22;21609;49.298;6.844;2022-07-29T01:36:47;22.40;49.30
35497;DHT22;21609;49.298;6.844;2022-07-29T01:39:30;22.40;49.30
35497;DHT22;21609;49.298;6.844;2022-07-29T01:42:25;22.40;49.40
35497;DHT22;21609;49.298;6.844;2022-07-29T01:44:59;22.40;49.40
35497;DHT22;21609;49.298;6.844;2022-07-29T01:47:40;22.40;49.40
35497;DHT22;21609;49.298;6.844;2022-07-29T01:50:07;22.40;49.40
35497;DHT22;21609;49.298;6.844;2022-07-29T01:52:39;22.30;49.80
35497;DHT22;21609;49.298;6.844;2022-07-29T01:55:11;22.30;49.40
35497;DHT22;21609;49.298;6.844;2022-07-29T01:57:40;22.30;49.40
35497;DHT22;21609;49.298;6.844;2022-07-29T02:00:08;22.30;49.30
35497;DHT22;21609;49.298;6.844;2022-07-29T02:02:35;22.30;49.30
35497;DHT22;21609;49.298;6.844;2022-07-29T02:05:03;22.30;49.30
35497;DHT22;21609;49.298;6.844;2022-07-29T02:07:31;22.30;49.30
35497;DHT22;21609;49.298;6.844;2022-07-29T02:09:58;22.30;49.30
35497;DHT22;21609;49.298;6.844;2022-07-29T02:12:25;22.30;49.30
35497;DHT22;21609;49.298;6.844;2022-07-29T02:14:53;22.30;49.30
35497;DHT22;21609;49.298;6.844;2022-07-29T02:17:27;22.20;49.30
35497;DHT22;21609;49.298;6.844;2022-07-29T02:19:57;22.20;49.30
35497;DHT22;21609;49.298;6.844;2022-07-29T02:22:26;22.20;49.30
35497;DHT22;21609;49.298;6.844;2022-07-29T02:24:53;22.20;49.30
35497;DHT22;21609;49.298;6.844;2022-07-29T02:27:20;22.20;50.00
35497;DHT22;21609;49.298;6.844;2022-07-29T02:29:49;22.20;49.30
35497;DHT22;21609;49.298;6.844;2022-07-29T02:32:16;22.20;49.50
35497;DHT22;21609;49.298;6.844;2022-07-29T02:34:43;22.20;49.30
35497;DHT22;21609;49.298;6.844;2022-07-29T02:37:11;22.10;49.30
35497;DHT22;21609;49.298;6.844;2022-07-29T02:39:37;22.10;49.40
35497;DHT22;21609;49.298;6.844;2022-07-29T02:42:07;22.10;49.30
35497;DHT22;21609;49.298;6.844;2022-07-29T02:44:33;22.10;49.30
35497;DHT22;21609;49.298;6.844;2022-07-29T02:49:43;22.10;49.30
35497;DHT22;21609;49.298;6.844;2022-07-29T02:52:37;22.10;49.30
35497;DHT22;21609;49.298;6.844;2022-07-29T02:57:43;22.10;49.30
35497;DHT22;21609;49.298;6.844;2022-07-29T03:00:10;22.10;49.50
35497;DHT22;21609;49.298;6.844;2022-07-29T03:02:39;22.00;49.40
35497;DHT22;21609;49.298;6.844;2022-07-29T03:05:09;22.10;49.50
35497;DHT22;21609;49.298;6.844;2022-07-29T03:07:36;22.00;49.40
35497;DHT22;21609;49.298;6.844;2022-07-29T03:10:03;22.00;49.50
35497;DHT22;21609;49.298;6.844;2022-07-29T03:12:30;22.00;49.50
35497;DHT22;21609;49.298;6.844;2022-07-29T03:14:56;22.00;49.60
35497;DHT22;21609;49.298;6.844;2022-07-29T03:17:23;22.00;49.60
35497;DHT22;21609;49.298;6.844;2022-07-29T03:19:49;22.00;49.50
35497;DHT22;21609;49.298;6.844;2022-07-29T03:22:15;22.00;49.50
35497;DHT22;21609;49.298;6.844;2022-07-29T03:24:40;22.00;49.50
35497;DHT22;21609;49.298;6.844;2022-07-29T03:27:06;22.00;49.50
35497;DHT22;21609;49.298;6.844;2022-07-29T03:29:32;21.90;49.50
35497;DHT22;21609;49.298;6.844;2022-07-29T03:31:58;21.90;49.50
35497;DHT22;21609;49.298;6.844;2022-07-29T03:34:23;21.90;49.50
35497;DHT22;21609;49.298;6.844;2022-07-29T03:36:49;21.90;49.60
35497;DHT22;21609;49.298;6.844;2022-07-29T03:39:18;21.90;49.60
35497;DHT22;21609;49.298;6.844;2022-07-29T03:41:47;21.90;49.60
35497;DHT22;21609;49.298;6.844;2022-07-29T03:44:14;21.80;49.60
35497;DHT22;21609;49.298;6.844;2022-07-29T03:46:41;21.80;49.70
35497;DHT22;21609;49.298;6.844;2022-07-29T03:49:09;21.80;49.70
35497;DHT22;21609;49.298;6.844;2022-07-29T03:51:36;21.80;49.70
35497;DHT22;21609;49.298;6.844;2022-07-29T03:54:05;21.80;49.70
35497;DHT22;21609;49.298;6.844;2022-07-29T03:56:32;21.80;49.70
35497;DHT22;21609;49.298;6.844;2022-07-29T03:59:02;21.80;49.70
35497;DHT22;21609;49.298;6.844;2022-07-29T04:01:28;21.80;49.80
35497;DHT22;21609;49.298;6.844;2022-07-29T04:03:55;21.80;49.70
35497;DHT22;21609;49.298;6.844;2022-07-29T04:06:20;21.70;49.70
35497;DHT22;21609;49.298;6.844;2022-07-29T04:08:46;21.80;49.80
35497;DHT22;21609;49.298;6.844;2022-07-29T04:11:12;21.70;49.80
35497;DHT22;21609;49.298;6.844;2022-07-29T04:13:38;21.70;49.80
35497;DHT22;21609;49.298;6.844;2022-07-29T04:16:03;21.70;49.90
35497;DHT22;21609;49.298;6.844;2022-07-29T04:18:29;21.70;49.90
35497;DHT22;21609;49.298;6.844;2022-07-29T04:20:54;21.70;49.90
35497;DHT22;21609;49.298;6.844;2022-07-29T04:23:20;21.70;49.90
35497;DHT22;21609;49.298;6.844;2022-07-29T04:25:46;21.80;49.90
35497;DHT22;21609;49.298;6.844;2022-07-29T04:28:11;21.80;50.00
35497;DHT22;21609;49.298;6.844;2022-07-29T04:30:38;21.80;50.00
35497;DHT22;21609;49.298;6.844;2022-07-29T04:33:05;21.80;49.90
35497;DHT22;21609;49.298;6.844;2022-07-29T04:35:34;21.80;49.90
35497;DHT22;21609;49.298;6.844;2022-07-29T04:38:00;21.80;49.90
35497;DHT22;21609;49.298;6.844;2022-07-29T04:40:26;21.80;50.60
35497;DHT22;21609;49.298;6.844;2022-07-29T04:42:51;21.80;50.10
35497;DHT22;21609;49.298;6.844;2022-07-29T04:45:17;21.80;50.10
35497;DHT22;21609;49.298;6.844;2022-07-29T04:47:42;21.80;50.10
35497;DHT22;21609;49.298;6.844;2022-07-29T04:50:09;21.80;50.10
35497;DHT22;21609;49.298;6.844;2022-07-29T04:52:35;21.80;50.10
35497;DHT22;21609;49.298;6.844;2022-07-29T04:55:01;21.90;50.20
35497;DHT22;21609;49.298;6.844;2022-07-29T04:57:26;21.90;50.10
35497;DHT22;21609;49.298;6.844;2022-07-29T04:59:52;21.90;50.20
35497;DHT22;21609;49.298;6.844;2022-07-29T05:02:17;21.90;50.30
35497;DHT22;21609;49.298;6.844;2022-07-29T05:04:43;21.90;50.20
35497;DHT22;21609;49.298;6.844;2022-07-29T05:07:08;21.90;50.10
35497;DHT22;21609;49.298;6.844;2022-07-29T05:09:34;21.90;50.10
35497;DHT22;21609;49.298;6.844;2022-07-29T05:11:59;21.90;50.10
35497;DHT22;21609;49.298;6.844;2022-07-29T05:14:25;21.90;50.10
35497;DHT22;21609;49.298;6.844;2022-07-29T05:16:50;22.00;50.20
35497;DHT22;21609;49.298;6.844;2022-07-29T05:19:17;21.90;50.20
35497;DHT22;21609;49.298;6.844;2022-07-29T05:21:44;21.90;50.30
35497;DHT22;21609;49.298;6.844;2022-07-29T05:24:09;22.00;50.20
35497;DHT22;21609;49.298;6.844;2022-07-29T05:26:35;22.00;50.80
35497;DHT22;21609;49.298;6.844;2022-07-29T05:29:01;22.00;50.20
35497;DHT22;21609;49.298;6.844;2022-07-29T05:31:26;22.00;50.30
35497;DHT22;21609;49.298;6.844;2022-07-29T05:33:52;22.00;50.30
35497;DHT22;21609;49.298;6.844;2022-07-29T05:36:18;22.00;50.30
35497;DHT22;21609;49.298;6.844;2022-07-29T05:38:43;22.00;50.30
35497;DHT22;21609;49.298;6.844;2022-07-29T05:41:09;22.00;50.40
35497;DHT22;21609;49.298;6.844;2022-07-29T05:43:34;22.00;51.00
35497;DHT22;21609;49.298;6.844;2022-07-29T05:46:00;21.90;51.20
35497;DHT22;21609;49.298;6.844;2022-07-29T05:48:26;21.90;51.00
35497;DHT22;21609;49.298;6.844;2022-07-29T05:50:51;22.00;51.00
35497;DHT22;21609;49.298;6.844;2022-07-29T05:53:17;22.00;50.90
35497;DHT22;21609;49.298;6.844;2022-07-29T05:55:42;22.00;51.00
35497;DHT22;21609;49.298;6.844;2022-07-29T05:58:08;22.10;51.20
35497;DHT22;21609;49.298;6.844;2022-07-29T06:00:34;22.10;51.40
35497;DHT22;21609;49.298;6.844;2022-07-29T06:02:59;22.10;51.50
35497;DHT22;21609;49.298;6.844;2022-07-29T06:05:25;22.10;51.60
35497;DHT22;21609;49.298;6.844;2022-07-29T06:07:50;22.00;51.60
35497;DHT22;21609;49.298;6.844;2022-07-29T06:10:16;22.00;51.70
35497;DHT22;21609;49.298;6.844;2022-07-29T06:12:41;22.00;51.80
35497;DHT22;21609;49.298;6.844;2022-07-29T06:15:07;22.10;51.70
35497;DHT22;21609;49.298;6.844;2022-07-29T06:17:33;22.10;51.90
35497;DHT22;21609;49.298;6.844;2022-07-29T06:19:58;22.10;51.90
35497;DHT22;21609;49.298;6.844;2022-07-29T06:22:24;22.10;51.90
35497;DHT22;21609;49.298;6.844;2022-07-29T06:24:49;22.10;51.90
35497;DHT22;21609;49.298;6.844;2022-07-29T06:27:15;22.10;52.00
35497;DHT22;21609;49.298;6.844;2022-07-29T06:29:41;22.10;51.90
35497;DHT22;21609;49.298;6.844;2022-07-29T06:32:07;22.10;51.90
35497;DHT22;21609;49.298;6.844;2022-07-29T06:34:35;22.10;52.10
35497;DHT22;21609;49.298;6.844;2022-07-29T06:37:00;22.10;51.90
35497;DHT22;21609;49.298;6.844;2022-07-29T06:39:30;22.10;51.80
35497;DHT22;21609;49.298;6.844;2022-07-29T06:41:56;22.20;52.10
35497;DHT22;21609;49.298;6.844;2022-07-29T06:44:21;22.20;51.80
35497;DHT22;21609;49.298;6.844;2022-07-29T06:46:47;22.10;51.80
35497;DHT22;21609;49.298;6.844;2022-07-29T06:49:15;22.10;51.50
35497;DHT22;21609;49.298;6.844;2022-07-29T06:51:40;22.10;52.20
35497;DHT22;21609;49.298;6.844;2022-07-29T06:54:06;22.10;51.60
35497;DHT22;21609;49.298;6.844;2022-07-29T06:56:34;22.20;51.50
35497;DHT22;21609;49.298;6.844;2022-07-29T06:59:02;22.20;51.40
35497;DHT22;21609;49.298;6.844;2022-07-29T07:01:27;22.30;51.50
35497;DHT22;21609;49.298;6.844;2022-07-29T07:03:53;22.30;51.50
35497;DHT22;21609;49.298;6.844;2022-07-29T07:06:18;22.30;51.50
35497;DHT22;21609;49.298;6.844;2022-07-29T07:08:44;22.30;51.50
35497;DHT22;21609;49.298;6.844;2022-07-29T07:11:10;22.40;51.50
35497;DHT22;21609;49.298;6.844;2022-07-29T07:13:35;22.40;51.40
35497;DHT22;21609;49.298;6.844;2022-07-29T07:16:01;22.40;51.40
35497;DHT22;21609;49.298;6.844;2022-07-29T07:18:27;22.40;51.10
35497;DHT22;21609;49.298;6.844;2022-07-29T07:20:53;22.40;51.00
35497;DHT22;21609;49.298;6.844;2022-07-29T07:23:19;22.50;50.90
35497;DHT22;21609;49.298;6.844;2022-07-29T07:25:44;22.50;51.00
35497;DHT22;21609;49.298;6.844;2022-07-29T07:28:10;22.50;51.00
35497;DHT22;21609;49.298;6.844;2022-07-29T07:30:36;22.50;51.10
35497;DHT22;21609;49.298;6.844;2022-07-29T07:33:01;22.60;51.10
35497;DHT22;21609;49.298;6.844;2022-07-29T07:35:27;22.60;51.50
35497;DHT22;21609;49.298;6.844;2022-07-29T07:37:55;22.60;51.40
35497;DHT22;21609;49.298;6.844;2022-07-29T07:40:20;22.60;51.70
35497;DHT22;21609;49.298;6.844;2022-07-29T07:42:46;22.60;51.70
35497;DHT22;21609;49.298;6.844;2022-07-29T07:45:12;22.60;50.90
35497;DHT22;21609;49.298;6.844;2022-07-29T07:47:38;22.70;51.60
35497;DHT22;21609;49.298;6.844;2022-07-29T07:50:06;22.70;51.20
35497;DHT22;21609;49.298;6.844;2022-07-29T07:52:32;22.70;51.00
35497;DHT22;21609;49.298;6.844;2022-07-29T07:54:58;22.70;51.00
35497;DHT22;21609;49.298;6.844;2022-07-29T07:57:23;22.70;50.80
35497;DHT22;21609;49.298;6.844;2022-07-29T07:59:49;22.80;51.40
35497;DHT22;21609;49.298;6.844;2022-07-29T08:02:14;22.80;51.70
35497;DHT22;21609;49.298;6.844;2022-07-29T08:04:40;22.60;51.40
35497;DHT22;21609;49.298;6.844;2022-07-29T08:07:06;22.50;52.10
35497;DHT22;21609;49.298;6.844;2022-07-29T08:09:32;22.70;51.70
35497;DHT22;21609;49.298;6.844;2022-07-29T08:11:58;22.80;51.80
35497;DHT22;21609;49.298;6.844;2022-07-29T08:14:24;22.90;51.40
35497;DHT22;21609;49.298;6.844;2022-07-29T08:16:50;23.00;51.20
35497;DHT22;21609;49.298;6.844;2022-07-29T08:19:16;23.00;51.50
35497;DHT22;21609;49.298;6.844;2022-07-29T08:21:42;23.00;51.80
35497;DHT22;21609;49.298;6.844;2022-07-29T08:24:07;23.00;51.40
35497;DHT22;21609;49.298;6.844;2022-07-29T08:26:51;23.00;51.30
35497;DHT22;21609;49.298;6.844;2022-07-29T08:29:17;23.00;51.40
35497;DHT22;21609;49.298;6.844;2022-07-29T08:31:42;23.00;51.50
35497;DHT22;21609;49.298;6.844;2022-07-29T08:34:08;23.10;51.40
35497;DHT22;21609;49.298;6.844;2022-07-29T08:36:34;23.10;50.90
35497;DHT22;21609;49.298;6.844;2022-07-29T08:39:00;23.10;51.60
35497;DHT22;21609;49.298;6.844;2022-07-29T08:41:26;23.10;51.80
35497;DHT22;21609;49.298;6.844;2022-07-29T08:43:52;23.10;51.80
35497;DHT22;21609;49.298;6.844;2022-07-29T08:46:18;23.10;51.80
35497;DHT22;21609;49.298;6.844;2022-07-29T08:48:44;23.10;51.70
35497;DHT22;21609;49.298;6.844;2022-07-29T08:51:18;23.10;51.80
35497;DHT22;21609;49.298;6.844;2022-07-29T08:53:46;23.20;51.80
35497;DHT22;21609;49.298;6.844;2022-07-29T08:56:14;23.20;51.80
35497;DHT22;21609;49.298;6.844;2022-07-29T08:58:42;23.20;51.70
35497;DHT22;21609;49.298;6.844;2022-07-29T09:01:08;23.20;51.80
35497;DHT22;21609;49.298;6.844;2022-07-29T09:03:37;23.20;51.80
35497;DHT22;21609;49.298;6.844;2022-07-29T09:06:03;23.20;52.30
35497;DHT22;21609;49.298;6.844;2022-07-29T09:08:32;23.20;51.40
35497;DHT22;21609;49.298;6.844;2022-07-29T09:10:58;23.20;51.90
35497;DHT22;21609;49.298;6.844;2022-07-29T09:13:25;23.20;51.90
35497;DHT22;21609;49.298;6.844;2022-07-29T09:15:51;23.20;51.60
35497;DHT22;21609;49.298;6.844;2022-07-29T09:18:46;23.20;51.60
35497;DHT22;21609;49.298;6.844;2022-07-29T09:21:14;23.20;51.60
35497;DHT22;21609;49.298;6.844;2022-07-29T09:24:10;23.30;52.20
35497;DHT22;21609;49.298;6.844;2022-07-29T09:26:39;23.20;51.90
35497;DHT22;21609;49.298;6.844;2022-07-29T09:29:10;23.30;51.50
35497;DHT22;21609;49.298;6.844;2022-07-29T09:31:38;23.30;52.40
35497;DHT22;21609;49.298;6.844;2022-07-29T09:34:05;23.30;52.10
35497;DHT22;21609;49.298;6.844;2022-07-29T09:36:45;23.20;51.80
35497;DHT22;21609;49.298;6.844;2022-07-29T09:39:12;23.30;51.70
35497;DHT22;21609;49.298;6.844;2022-07-29T09:41:54;23.20;52.00
35497;DHT22;21609;49.298;6.844;2022-07-29T09:44:23;23.30;51.70
35497;DHT22;21609;49.298;6.844;2022-07-29T09:47:01;23.30;50.80
35497;DHT22;21609;49.298;6.844;2022-07-29T09:49:34;23.30;51.60
35497;DHT22;21609;49.298;6.844;2022-07-29T09:52:08;23.30;51.90
35497;DHT22;21609;49.298;6.844;2022-07-29T09:54:35;23.30;51.20
35497;DHT22;21609;49.298;6.844;2022-07-29T09:57:05;23.30;51.60
35497;DHT22;21609;49.298;6.844;2022-07-29T09:59:32;23.30;50.50
35497;DHT22;21609;49.298;6.844;2022-07-29T10:02:00;23.30;51.60
35497;DHT22;21609;49.298;6.844;2022-07-29T10:04:39;23.30;51.70
35497;DHT22;21609;49.298;6.844;2022-07-29T10:07:05;23.30;51.20
35497;DHT22;21609;49.298;6.844;2022-07-29T10:09:32;23.30;51.40
35497;DHT22;21609;49.298;6.844;2022-07-29T10:12:11;23.30;51.70
35497;DHT22;21609;49.298;6.844;2022-07-29T10:14:39;23.30;51.60
35497;DHT22;21609;49.298;6.844;2022-07-29T10:17:06;23.30;51.60
35497;DHT22;21609;49.298;6.844;2022-07-29T10:19:32;23.30;52.60
35497;DHT22;21609;49.298;6.844;2022-07-29T10:22:00;23.40;51.70
35497;DHT22;21609;49.298;6.844;2022-07-29T10:24:27;23.40;51.90
35497;DHT22;21609;49.298;6.844;2022-07-29T10:26:57;23.40;51.90
35497;DHT22;21609;49.298;6.844;2022-07-29T10:29:24;23.30;51.30
35497;DHT22;21609;49.298;6.844;2022-07-29T10:41:24;23.30;51.20
35497;DHT22;21609;49.298;6.844;2022-07-29T10:44:00;23.40;51.60
35497;DHT22;21609;49.298;6.844;2022-07-29T10:46:27;23.30;51.40
35497;DHT22;21609;49.298;6.844;2022-07-29T10:49:12;23.40;51.90
35497;DHT22;21609;49.298;6.844;2022-07-29T10:52:06;23.40;51.60
35497;DHT22;21609;49.298;6.844;2022-07-29T10:54:39;23.40;51.80
35497;DHT22;21609;49.298;6.844;2022-07-29T10:57:24;23.40;51.80
35497;DHT22;21609;49.298;6.844;2022-07-29T11:05:00;23.40;51.70
35497;DHT22;21609;49.298;6.844;2022-07-29T11:07:26;23.40;51.80
35497;DHT22;21609;49.298;6.844;2022-07-29T11:15:04;23.40;51.70
35497;DHT22;21609;49.298;6.844;2022-07-29T11:20:46;23.40;51.90
35497;DHT22;21609;49.298;6.844;2022-07-29T11:23:29;23.40;52.50
35497;DHT22;21609;49.298;6.844;2022-07-29T11:26:19;23.50;52.00
35497;DHT22;21609;49.298;6.844;2022-07-29T11:29:03;23.40;51.80
35497;DHT22;21609;49.298;6.844;2022-07-29T11:31:48;23.50;51.90
35497;DHT22;21609;49.298;6.844;2022-07-29T11:39:35;23.40;51.80
35497;DHT22;21609;49.298;6.844;2022-07-29T11:45:00;23.50;51.80
35497;DHT22;21609;49.298;6.844;2022-07-29T11:47:29;23.50;51.90
35497;DHT22;21609;49.298;6.844;2022-07-29T11:49:56;23.50;51.90
35497;DHT22;21609;49.298;6.844;2022-07-29T11:52:24;23.50;51.80
35497;DHT22;21609;49.298;6.844;2022-07-29T11:54:57;23.50;51.80
35497;DHT22;21609;49.298;6.844;2022-07-29T11:57:26;23.50;51.80
35497;DHT22;21609;49.298;6.844;2022-07-29T11:59:53;23.50;51.80
35497;DHT22;21609;49.298;6.844;2022-07-29T12:02:20;23.50;52.40
35497;DHT22;21609;49.298;6.844;2022-07-29T12:04:53;23.50;51.80
35497;DHT22;21609;49.298;6.844;2022-07-29T12:07:29;23.50;51.70
35497;DHT22;21609;49.298;6.844;2022-07-29T12:09:55;23.50;51.90
35497;DHT22;21609;49.298;6.844;2022-07-29T12:12:21;23.50;52.00
35497;DHT22;21609;49.298;6.844;2022-07-29T12:14:47;23.50;51.70
35497;DHT22;21609;49.298;6.844;2022-07-29T12:17:48;23.50;51.80
35497;DHT22;21609;49.298;6.844;2022-07-29T12:20:26;23.50;51.90
35497;DHT22;21609;49.298;6.844;2022-07-29T12:22:52;23.60;51.90
35497;DHT22;21609;49.298;6.844;2022-07-29T12:25:19;23.50;51.70
35497;DHT22;21609;49.298;6.844;2022-07-29T12:27:45;23.50;51.80
35497;DHT22;21609;49.298;6.844;2022-07-29T12:30:15;23.60;51.80
35497;DHT22;21609;49.298;6.844;2022-07-29T12:32:46;23.60;51.90
35497;DHT22;21609;49.298;6.844;2022-07-29T12:35:15;23.60;51.90
35497;DHT22;21609;49.298;6.844;2022-07-29T12:37:43;23.60;51.90
35497;DHT22;21609;49.298;6.844;2022-07-29T12:40:12;23.60;51.90
35497;DHT22;21609;49.298;6.844;2022-07-29T12:42:39;23.60;51.90
35497;DHT22;21609;49.298;6.844;2022-07-29T12:45:05;23.60;51.90
35497;DHT22;21609;49.298;6.844;2022-07-29T12:47:50;23.60;51.80
35497;DHT22;21609;49.298;6.844;2022-07-29T12:50:16;23.60;51.80
35497;DHT22;21609;49.298;6.844;2022-07-29T12:52:44;23.60;51.90
35497;DHT22;21609;49.298;6.844;2022-07-29T12:55:10;23.60;51.80
35497;DHT22;21609;49.298;6.844;2022-07-29T12:57:49;23.70;52.00
35497;DHT22;21609;49.298;6.844;2022-07-29T13:00:23;23.60;51.90
35497;DHT22;21609;49.298;6.844;2022-07-29T13:02:59;23.60;52.00
35497;DHT22;21609;49.298;6.844;2022-07-29T13:05:43;23.70;52.20
35497;DHT22;21609;49.298;6.844;2022-07-29T13:08:17;23.70;52.30
35497;DHT22;21609;49.298;6.844;2022-07-29T13:10:46;23.70;52.40
35497;DHT22;21609;49.298;6.844;2022-07-29T13:13:14;23.70;52.70
35497;DHT22;21609;49.298;6.844;2022-07-29T13:15:44;23.70;52.30
35497;DHT22;21609;49.298;6.844;2022-07-29T13:18:34;23.70;52.10
35497;DHT22;21609;49.298;6.844;2022-07-29T13:21:12;23.70;53.00
35497;DHT22;21609;49.298;6.844;2022-07-29T13:23:38;23.80;52.30
35497;DHT22;21609;49.298;6.844;2022-07-29T13:26:11;23.80;52.80
35497;DHT22;21609;49.298;6.844;2022-07-29T13:28:37;23.80;53.30
35497;DHT22;21609;49.298;6.844;2022-07-29T13:31:03;23.80;53.40
35497;DHT22;21609;49.298;6.844;2022-07-29T13:33:28;23.80;53.40
35497;DHT22;21609;49.298;6.844;2022-07-29T13:35:55;23.80;54.30
35497;DHT22;21609;49.298;6.844;2022-07-29T13:38:20;23.80;53.40
35497;DHT22;21609;49.298;6.844;2022-07-29T13:40:50;23.80;53.70
35497;DHT22;21609;49.298;6.844;2022-07-29T13:43:16;23.80;53.60
35497;DHT22;21609;49.298;6.844;2022-07-29T13:45:41;23.80;53.20
35497;DHT22;21609;49.298;6.844;2022-07-29T13:48:07;23.80;53.40
35497;DHT22;21609;49.298;6.844;2022-07-29T13:50:32;23.80;53.40
35497;DHT22;21609;49.298;6.844;2022-07-29T13:52:58;23.80;53.30
35497;DHT22;21609;49.298;6.844;2022-07-29T13:55:24;23.80;53.80
35497;DHT22;21609;49.298;6.844;2022-07-29T13:57:49;23.80;53.80
35497;DHT22;21609;49.298;6.844;2022-07-29T14:00:15;23.80;53.50
35497;DHT22;21609;49.298;6.844;2022-07-29T14:02:41;23.90;53.40
35497;DHT22;21609;49.298;6.844;2022-07-29T14:05:07;23.90;53.40
35497;DHT22;21609;49.298;6.844;2022-07-29T14:07:35;23.90;53.40
35497;DHT22;21609;49.298;6.844;2022-07-29T14:10:00;23.90;53.30
35497;DHT22;21609;49.298;6.844;2022-07-29T14:12:26;23.90;53.30
35497;DHT22;21609;49.298;6.844;2022-07-29T14:14:51;23.90;53.70
35497;DHT22;21609;49.298;6.844;2022-07-29T14:17:17;23.90;53.50
35497;DHT22;21609;49.298;6.844;2022-07-29T14:19:43;23.90;53.30
35497;DHT22;21609;49.298;6.844;2022-07-29T14:22:08;23.90;53.90
35497;DHT22;21609;49.298;6.844;2022-07-29T14:24:37;23.90;54.00
35497;DHT22;21609;49.298;6.844;2022-07-29T14:27:04;23.90;54.10
35497;DHT22;21609;49.298;6.844;2022-07-29T14:29:30;23.90;54.40
35497;DHT22;21609;49.298;6.844;2022-07-29T14:31:56;23.90;54.20
35497;DHT22;21609;49.298;6.844;2022-07-29T14:34:21;23.90;54.50
35497;DHT22;21609;49.298;6.844;2022-07-29T14:36:47;24.00;54.00
35497;DHT22;21609;49.298;6.844;2022-07-29T14:39:12;24.00;53.80
35497;DHT22;21609;49.298;6.844;2022-07-29T14:41:38;24.00;53.70
35497;DHT22;21609;49.298;6.844;2022-07-29T14:44:04;24.00;53.60
35497;DHT22;21609;49.298;6.844;2022-07-29T14:46:29;24.00;53.30
35497;DHT22;21609;49.298;6.844;2022-07-29T14:48:55;24.10;53.30
35497;DHT22;21609;49.298;6.844;2022-07-29T14:51:20;24.10;53.10
35497;DHT22;21609;49.298;6.844;2022-07-29T14:53:46;24.10;53.10
35497;DHT22;21609;49.298;6.844;2022-07-29T14:56:12;24.10;53.00
35497;DHT22;21609;49.298;6.844;2022-07-29T14:58:38;24.10;53.60
35497;DHT22;21609;49.298;6.844;2022-07-29T15:01:03;24.10;53.30
35497;DHT22;21609;49.298;6.844;2022-07-29T15:03:29;24.10;53.20
35497;DHT22;21609;49.298;6.844;2022-07-29T15:05:55;24.10;53.20
35497;DHT22;21609;49.298;6.844;2022-07-29T15:08:20;24.10;53.20
35497;DHT22;21609;49.298;6.844;2022-07-29T15:10:46;24.10;53.20
35497;DHT22;21609;49.298;6.844;2022-07-29T15:13:11;24.10;53.20
35497;DHT22;21609;49.298;6.844;2022-07-29T15:15:37;24.10;53.30
35497;DHT22;21609;49.298;6.844;2022-07-29T15:18:03;24.10;53.50
35497;DHT22;21609;49.298;6.844;2022-07-29T15:20:29;24.10;53.60
35497;DHT22;21609;49.298;6.844;2022-07-29T15:22:55;24.10;53.50
35497;DHT22;21609;49.298;6.844;2022-07-29T15:25:24;24.10;53.90
35497;DHT22;21609;49.298;6.844;2022-07-29T15:27:50;24.10;53.60
35497;DHT22;21609;49.298;6.844;2022-07-29T15:30:16;24.10;54.30
35497;DHT22;21609;49.298;6.844;2022-07-29T15:32:43;24.10;53.80
35497;DHT22;21609;49.298;6.844;2022-07-29T15:35:08;24.10;53.80
35497;DHT22;21609;49.298;6.844;2022-07-29T15:37:36;24.10;54.10
35497;DHT22;21609;49.298;6.844;2022-07-29T15:40:02;24.20;53.90
35497;DHT22;21609;49.298;6.844;2022-07-29T15:42:28;24.10;53.60
35497;DHT22;21609;49.298;6.844;2022-07-29T15:44:53;24.20;53.60
35497;DHT22;21609;49.298;6.844;2022-07-29T15:47:20;24.20;53.60
35497;DHT22;21609;49.298;6.844;2022-07-29T15:49:46;24.20;53.60
35497;DHT22;21609;49.298;6.844;2022-07-29T15:52:11;24.20;53.50
35497;DHT22;21609;49.298;6.844;2022-07-29T15:54:38;24.20;53.50
35497;DHT22;21609;49.298;6.844;2022-07-29T15:57:07;24.20;53.50
35497;DHT22;21609;49.298;6.844;2022-07-29T15:59:33;24.20;53.50
35497;DHT22;21609;49.298;6.844;2022-07-29T16:01:59;24.20;53.60
35497;DHT22;21609;49.298;6.844;2022-07-29T16:04:25;24.20;53.50
35497;DHT22;21609;49.298;6.844;2022-07-29T16:06:52;24.20;53.50
35497;DHT22;21609;49.298;6.844;2022-07-29T16:09:18;24.20;53.30
35497;DHT22;21609;49.298;6.844;2022-07-29T16:11:44;24.20;53.40
35497;DHT22;21609;49.298;6.844;2022-07-29T16:14:11;24.30;53.40
35497;DHT22;21609;49.298;6.844;2022-07-29T16:16:39;24.30;53.40
35497;DHT22;21609;49.298;6.844;2022-07-29T16:19:06;24.30;53.40